sensor_id;sensor_type;location;lat;lon;timestamp;P1;durP1;ratioP1;P2;durP2;ratioP2
49824;SDS011;35714;55.708;37.478;2022-10-31T00:01:13;1.48;;;0.28;;
49824;SDS011;35714;55.708;37.478;2022-10-31T00:03:41;1.02;;;0.20;;
49824;SDS011;35714;55.708;37.478;2022-10-31T00:06:07;1.05;;;0.25;;
49824;SDS011;35714;55.708;37.478;2022-10-31T00:08:33;0.47;;;0.20;;
49824;SDS011;35714;55.708;37.478;2022-10-31T00:10:59;0.55;;;0.20;;
49824;SDS011;35714;55.708;37.478;2022-10-31T00:13:25;0.03;;;0.00;;
49824;SDS011;35714;55.708;37.478;2022-10-31T00:15:54;2.30;;;0.38;;
49824;SDS011;35714;55.708;37.478;2022-10-31T00:18:19;1.50;;;0.30;;
49824;SDS011;35714;55.708;37.478;2022-10-31T00:20:45;2.22;;;0.30;;
49824;SDS011;35714;55.708;37.478;2022-10-31T00:23:11;1.67;;;0.50;;
49824;SDS011;35714;55.708;37.478;2022-10-31T00:25:37;0.65;;;0.20;;
49824;SDS011;35714;55.708;37.478;2022-10-31T00:28:05;0.95;;;0.17;;
49824;SDS011;35714;55.708;37.478;2022-10-31T00:30:32;2.58;;;0.30;;
49824;SDS011;35714;55.708;37.478;2022-10-31T00:32:58;1.15;;;0.20;;
49824;SDS011;35714;55.708;37.478;2022-10-31T00:35:24;2.50;;;0.40;;
49824;SDS011;35714;55.708;37.478;2022-10-31T00:37:51;1.08;;;0.25;;
49824;SDS011;35714;55.708;37.478;2022-10-31T00:40:17;2.25;;;0.40;;
49824;SDS011;35714;55.708;37.478;2022-10-31T00:42:43;1.85;;;0.32;;
49824;SDS011;35714;55.708;37.478;2022-10-31T00:45:09;1.40;;;0.32;;
49824;SDS011;35714;55.708;37.478;2022-10-31T00:47:35;0.77;;;0.20;;
49824;SDS011;35714;55.708;37.478;2022-10-31T00:50:01;1.05;;;0.25;;
49824;SDS011;35714;55.708;37.478;2022-10-31T00:52:28;1.27;;;0.30;;
49824;SDS011;35714;55.708;37.478;2022-10-31T00:54:54;2.08;;;0.47;;
49824;SDS011;35714;55.708;37.478;2022-10-31T00:57:20;0.60;;;0.17;;
49824;SDS011;35714;55.708;37.478;2022-10-31T00:59:46;0.32;;;0.10;;
49824;SDS011;35714;55.708;37.478;2022-10-31T01:02:12;0.30;;;0.20;;
49824;SDS011;35714;55.708;37.478;2022-10-31T01:04:37;2.42;;;0.30;;
49824;SDS011;35714;55.708;37.478;2022-10-31T01:07:03;1.08;;;0.32;;
49824;SDS011;35714;55.708;37.478;2022-10-31T01:09:29;5.03;;;0.40;;
49824;SDS011;35714;55.708;37.478;2022-10-31T01:11:54;0.38;;;0.10;;
49824;SDS011;35714;55.708;37.478;2022-10-31T01:14:22;0.95;;;0.28;;
49824;SDS011;35714;55.708;37.478;2022-10-31T01:16:47;0.47;;;0.28;;
49824;SDS011;35714;55.708;37.478;2022-10-31T01:19:13;1.55;;;0.30;;
49824;SDS011;35714;55.708;37.478;2022-10-31T01:21:39;0.57;;;0.13;;
49824;SDS011;35714;55.708;37.478;2022-10-31T01:24:05;2.67;;;0.40;;
49824;SDS011;35714;55.708;37.478;2022-10-31T01:26:31;1.35;;;0.40;;
49824;SDS011;35714;55.708;37.478;2022-10-31T01:29:03;1.90;;;0.40;;
49824;SDS011;35714;55.708;37.478;2022-10-31T01:31:32;2.25;;;0.30;;
49824;SDS011;35714;55.708;37.478;2022-10-31T01:33:59;1.27;;;0.17;;
49824;SDS011;35714;55.708;37.478;2022-10-31T01:36:27;1.23;;;0.32;;
49824;SDS011;35714;55.708;37.478;2022-10-31T01:38:55;0.85;;;0.22;;
49824;SDS011;35714;55.708;37.478;2022-10-31T01:41:25;1.38;;;0.30;;
49824;SDS011;35714;55.708;37.478;2022-10-31T01:43:57;1.95;;;0.40;;
49824;SDS011;35714;55.708;37.478;2022-10-31T01:46:28;0.40;;;0.10;;
49824;SDS011;35714;55.708;37.478;2022-10-31T01:48:59;1.95;;;0.30;;
49824;SDS011;35714;55.708;37.478;2022-10-31T01:51:29;0.80;;;0.20;;
49824;SDS011;35714;55.708;37.478;2022-10-31T01:53:59;1.25;;;0.30;;
49824;SDS011;35714;55.708;37.478;2022-10-31T01:56:29;0.77;;;0.20;;
49824;SDS011;35714;55.708;37.478;2022-10-31T01:58:57;3.13;;;0.20;;
49824;SDS011;35714;55.708;37.478;2022-10-31T02:01:25;1.30;;;0.20;;
49824;SDS011;35714;55.708;37.478;2022-10-31T02:03:51;3.00;;;0.60;;
49824;SDS011;35714;55.708;37.478;2022-10-31T02:06:28;1.27;;;0.10;;
49824;SDS011;35714;55.708;37.478;2022-10-31T02:09:11;6.60;;;0.80;;
49824;SDS011;35714;55.708;37.478;2022-10-31T02:11:38;1.35;;;0.28;;
49824;SDS011;35714;55.708;37.478;2022-10-31T02:14:04;0.52;;;0.30;;
49824;SDS011;35714;55.708;37.478;2022-10-31T02:16:50;2.28;;;0.68;;
49824;SDS011;35714;55.708;37.478;2022-10-31T02:19:18;5.10;;;0.43;;
49824;SDS011;35714;55.708;37.478;2022-10-31T02:22:24;0.43;;;0.20;;
49824;SDS011;35714;55.708;37.478;2022-10-31T02:25:02;0.82;;;0.20;;
49824;SDS011;35714;55.708;37.478;2022-10-31T02:33:41;2.05;;;0.45;;
49824;SDS011;35714;55.708;37.478;2022-10-31T02:36:27;1.00;;;0.40;;
49824;SDS011;35714;55.708;37.478;2022-10-31T02:39:15;1.98;;;0.30;;
49824;SDS011;35714;55.708;37.478;2022-10-31T02:41:49;0.98;;;0.30;;
49824;SDS011;35714;55.708;37.478;2022-10-31T02:49:53;1.65;;;0.40;;
49824;SDS011;35714;55.708;37.478;2022-10-31T02:52:23;2.08;;;0.47;;
49824;SDS011;35714;55.708;37.478;2022-10-31T02:54:52;1.85;;;0.28;;
49824;SDS011;35714;55.708;37.478;2022-10-31T02:57:20;1.15;;;0.32;;
49824;SDS011;35714;55.708;37.478;2022-10-31T02:59:56;2.40;;;0.40;;
49824;SDS011;35714;55.708;37.478;2022-10-31T03:08:17;1.55;;;0.38;;
49824;SDS011;35714;55.708;37.478;2022-10-31T03:10:53;2.45;;;0.30;;
49824;SDS011;35714;55.708;37.478;2022-10-31T03:13:34;5.05;;;0.68;;
49824;SDS011;35714;55.708;37.478;2022-10-31T03:16:11;1.42;;;0.30;;
49824;SDS011;35714;55.708;37.478;2022-10-31T03:24:25;1.35;;;0.50;;
49824;SDS011;35714;55.708;37.478;2022-10-31T03:26:53;4.53;;;0.47;;
49824;SDS011;35714;55.708;37.478;2022-10-31T03:29:23;0.88;;;0.22;;
49824;SDS011;35714;55.708;37.478;2022-10-31T03:32:00;1.77;;;0.30;;
49824;SDS011;35714;55.708;37.478;2022-10-31T03:34:32;0.75;;;0.25;;
49824;SDS011;35714;55.708;37.478;2022-10-31T03:37:01;0.30;;;0.20;;
49824;SDS011;35714;55.708;37.478;2022-10-31T03:39:31;0.68;;;0.20;;
49824;SDS011;35714;55.708;37.478;2022-10-31T03:42:13;2.85;;;0.40;;
49824;SDS011;35714;55.708;37.478;2022-10-31T03:44:42;2.67;;;0.50;;
49824;SDS011;35714;55.708;37.478;2022-10-31T03:47:12;1.20;;;0.45;;
49824;SDS011;35714;55.708;37.478;2022-10-31T03:49:38;2.17;;;0.70;;
49824;SDS011;35714;55.708;37.478;2022-10-31T03:54:35;1.02;;;0.38;;
49824;SDS011;35714;55.708;37.478;2022-10-31T04:00:04;0.43;;;0.20;;
49824;SDS011;35714;55.708;37.478;2022-10-31T04:02:45;2.30;;;0.30;;
49824;SDS011;35714;55.708;37.478;2022-10-31T04:05:19;1.80;;;0.52;;
49824;SDS011;35714;55.708;37.478;2022-10-31T04:07:47;1.38;;;0.50;;
49824;SDS011;35714;55.708;37.478;2022-10-31T04:10:17;1.40;;;0.40;;
49824;SDS011;35714;55.708;37.478;2022-10-31T04:12:45;1.75;;;0.35;;
49824;SDS011;35714;55.708;37.478;2022-10-31T04:15:22;0.93;;;0.28;;
49824;SDS011;35714;55.708;37.478;2022-10-31T04:17:49;1.75;;;0.70;;
49824;SDS011;35714;55.708;37.478;2022-10-31T04:20:17;3.45;;;0.45;;
49824;SDS011;35714;55.708;37.478;2022-10-31T04:22:43;1.08;;;0.35;;
49824;SDS011;35714;55.708;37.478;2022-10-31T04:25:10;3.22;;;0.70;;
49824;SDS011;35714;55.708;37.478;2022-10-31T04:27:38;2.15;;;0.40;;
49824;SDS011;35714;55.708;37.478;2022-10-31T04:30:06;2.35;;;0.70;;
49824;SDS011;35714;55.708;37.478;2022-10-31T04:32:35;2.80;;;0.63;;
49824;SDS011;35714;55.708;37.478;2022-10-31T04:35:00;3.70;;;0.57;;
49824;SDS011;35714;55.708;37.478;2022-10-31T04:37:29;2.67;;;0.60;;
49824;SDS011;35714;55.708;37.478;2022-10-31T04:39:54;3.50;;;0.68;;
49824;SDS011;35714;55.708;37.478;2022-10-31T04:42:55;3.67;;;0.90;;
49824;SDS011;35714;55.708;37.478;2022-10-31T04:45:21;1.67;;;0.60;;
49824;SDS011;35714;55.708;37.478;2022-10-31T04:47:50;2.05;;;0.60;;
49824;SDS011;35714;55.708;37.478;2022-10-31T04:50:16;2.22;;;0.55;;
49824;SDS011;35714;55.708;37.478;2022-10-31T04:52:43;1.88;;;0.47;;
49824;SDS011;35714;55.708;37.478;2022-10-31T04:55:12;1.48;;;0.50;;
49824;SDS011;35714;55.708;37.478;2022-10-31T04:57:48;2.72;;;0.50;;
49824;SDS011;35714;55.708;37.478;2022-10-31T05:00:17;1.73;;;0.60;;
49824;SDS011;35714;55.708;37.478;2022-10-31T05:02:52;1.00;;;0.32;;
49824;SDS011;35714;55.708;37.478;2022-10-31T05:05:19;1.20;;;0.30;;
49824;SDS011;35714;55.708;37.478;2022-10-31T05:07:47;3.20;;;0.50;;
49824;SDS011;35714;55.708;37.478;2022-10-31T05:10:18;2.25;;;0.50;;
49824;SDS011;35714;55.708;37.478;2022-10-31T05:12:48;3.20;;;0.50;;
49824;SDS011;35714;55.708;37.478;2022-10-31T05:15:35;1.75;;;0.47;;
49824;SDS011;35714;55.708;37.478;2022-10-31T05:18:09;6.35;;;0.63;;
49824;SDS011;35714;55.708;37.478;2022-10-31T05:20:58;2.13;;;0.70;;
49824;SDS011;35714;55.708;37.478;2022-10-31T05:23:33;1.95;;;0.70;;
49824;SDS011;35714;55.708;37.478;2022-10-31T05:25:59;2.40;;;0.80;;
49824;SDS011;35714;55.708;37.478;2022-10-31T05:28:24;4.22;;;0.93;;
49824;SDS011;35714;55.708;37.478;2022-10-31T05:30:50;3.80;;;0.80;;
49824;SDS011;35714;55.708;37.478;2022-10-31T05:33:16;3.17;;;0.65;;
49824;SDS011;35714;55.708;37.478;2022-10-31T05:36:00;1.20;;;0.40;;
49824;SDS011;35714;55.708;37.478;2022-10-31T05:38:32;1.98;;;0.70;;
49824;SDS011;35714;55.708;37.478;2022-10-31T05:41:07;1.55;;;0.55;;
49824;SDS011;35714;55.708;37.478;2022-10-31T05:43:33;1.75;;;0.50;;
49824;SDS011;35714;55.708;37.478;2022-10-31T05:46:01;1.70;;;0.40;;
49824;SDS011;35714;55.708;37.478;2022-10-31T05:48:55;2.45;;;0.40;;
49824;SDS011;35714;55.708;37.478;2022-10-31T05:51:40;1.75;;;0.50;;
49824;SDS011;35714;55.708;37.478;2022-10-31T05:54:07;1.55;;;0.40;;
49824;SDS011;35714;55.708;37.478;2022-10-31T05:56:32;2.72;;;0.73;;
49824;SDS011;35714;55.708;37.478;2022-10-31T05:58:59;0.80;;;0.30;;
49824;SDS011;35714;55.708;37.478;2022-10-31T06:01:25;1.67;;;0.30;;
49824;SDS011;35714;55.708;37.478;2022-10-31T06:03:51;1.92;;;0.57;;
49824;SDS011;35714;55.708;37.478;2022-10-31T06:06:19;2.38;;;0.30;;
49824;SDS011;35714;55.708;37.478;2022-10-31T06:08:44;1.40;;;0.40;;
49824;SDS011;35714;55.708;37.478;2022-10-31T06:11:16;1.63;;;0.40;;
49824;SDS011;35714;55.708;37.478;2022-10-31T06:14:00;2.83;;;0.63;;
49824;SDS011;35714;55.708;37.478;2022-10-31T06:16:34;1.52;;;0.40;;
49824;SDS011;35714;55.708;37.478;2022-10-31T06:19:16;3.40;;;0.43;;
49824;SDS011;35714;55.708;37.478;2022-10-31T06:21:41;2.20;;;0.40;;
49824;SDS011;35714;55.708;37.478;2022-10-31T06:24:08;2.83;;;0.50;;
49824;SDS011;35714;55.708;37.478;2022-10-31T06:26:51;1.10;;;0.40;;
49824;SDS011;35714;55.708;37.478;2022-10-31T06:29:17;1.10;;;0.30;;
49824;SDS011;35714;55.708;37.478;2022-10-31T06:32:01;2.30;;;0.50;;
49824;SDS011;35714;55.708;37.478;2022-10-31T06:34:28;1.42;;;0.40;;
49824;SDS011;35714;55.708;37.478;2022-10-31T06:36:54;1.30;;;0.30;;
49824;SDS011;35714;55.708;37.478;2022-10-31T06:39:23;2.10;;;0.50;;
49824;SDS011;35714;55.708;37.478;2022-10-31T06:41:49;1.85;;;0.50;;
49824;SDS011;35714;55.708;37.478;2022-10-31T06:44:17;1.85;;;0.60;;
49824;SDS011;35714;55.708;37.478;2022-10-31T06:46:58;2.47;;;0.55;;
49824;SDS011;35714;55.708;37.478;2022-10-31T06:49:40;2.42;;;0.63;;
49824;SDS011;35714;55.708;37.478;2022-10-31T06:52:14;3.20;;;0.63;;
49824;SDS011;35714;55.708;37.478;2022-10-31T06:54:40;2.30;;;0.55;;
49824;SDS011;35714;55.708;37.478;2022-10-31T06:57:06;1.45;;;0.50;;
49824;SDS011;35714;55.708;37.478;2022-10-31T06:59:32;1.30;;;0.40;;
49824;SDS011;35714;55.708;37.478;2022-10-31T07:02:12;1.05;;;0.40;;
49824;SDS011;35714;55.708;37.478;2022-10-31T07:04:40;1.27;;;0.43;;
49824;SDS011;35714;55.708;37.478;2022-10-31T07:07:07;3.35;;;0.70;;
49824;SDS011;35714;55.708;37.478;2022-10-31T07:09:34;2.13;;;0.60;;
49824;SDS011;35714;55.708;37.478;2022-10-31T07:12:02;0.93;;;0.40;;
49824;SDS011;35714;55.708;37.478;2022-10-31T07:14:30;1.38;;;0.50;;
49824;SDS011;35714;55.708;37.478;2022-10-31T07:16:55;1.80;;;0.60;;
49824;SDS011;35714;55.708;37.478;2022-10-31T07:19:27;1.33;;;0.40;;
49824;SDS011;35714;55.708;37.478;2022-10-31T07:21:54;3.78;;;0.50;;
49824;SDS011;35714;55.708;37.478;2022-10-31T07:24:22;1.30;;;0.40;;
49824;SDS011;35714;55.708;37.478;2022-10-31T07:27:07;1.05;;;0.38;;
49824;SDS011;35714;55.708;37.478;2022-10-31T07:29:33;1.42;;;0.57;;
49824;SDS011;35714;55.708;37.478;2022-10-31T07:31:59;2.08;;;0.60;;
49824;SDS011;35714;55.708;37.478;2022-10-31T07:34:27;1.88;;;0.50;;
49824;SDS011;35714;55.708;37.478;2022-10-31T07:37:13;4.28;;;1.00;;
49824;SDS011;35714;55.708;37.478;2022-10-31T07:39:38;2.30;;;0.50;;
49824;SDS011;35714;55.708;37.478;2022-10-31T07:42:05;1.73;;;0.55;;
49824;SDS011;35714;55.708;37.478;2022-10-31T07:44:32;1.45;;;0.63;;
49824;SDS011;35714;55.708;37.478;2022-10-31T07:47:12;1.73;;;0.60;;
49824;SDS011;35714;55.708;37.478;2022-10-31T07:50:08;1.40;;;0.50;;
49824;SDS011;35714;55.708;37.478;2022-10-31T07:53:08;2.67;;;0.40;;
49824;SDS011;35714;55.708;37.478;2022-10-31T07:55:58;1.33;;;0.40;;
49824;SDS011;35714;55.708;37.478;2022-10-31T07:58:28;2.08;;;0.60;;
49824;SDS011;35714;55.708;37.478;2022-10-31T08:00:57;1.27;;;0.35;;
49824;SDS011;35714;55.708;37.478;2022-10-31T08:03:32;1.40;;;0.28;;
49824;SDS011;35714;55.708;37.478;2022-10-31T08:06:16;1.35;;;0.30;;
49824;SDS011;35714;55.708;37.478;2022-10-31T08:09:05;0.98;;;0.32;;
49824;SDS011;35714;55.708;37.478;2022-10-31T08:11:31;1.52;;;0.30;;
49824;SDS011;35714;55.708;37.478;2022-10-31T08:13:59;1.00;;;0.40;;
49824;SDS011;35714;55.708;37.478;2022-10-31T08:16:25;1.27;;;0.40;;
49824;SDS011;35714;55.708;37.478;2022-10-31T08:18:59;0.68;;;0.20;;
49824;SDS011;35714;55.708;37.478;2022-10-31T08:21:24;1.02;;;0.30;;
49824;SDS011;35714;55.708;37.478;2022-10-31T08:23:50;0.57;;;0.30;;
49824;SDS011;35714;55.708;37.478;2022-10-31T08:26:18;1.23;;;0.30;;
49824;SDS011;35714;55.708;37.478;2022-10-31T08:28:44;1.25;;;0.40;;
49824;SDS011;35714;55.708;37.478;2022-10-31T08:31:11;0.98;;;0.30;;
49824;SDS011;35714;55.708;37.478;2022-10-31T08:33:39;2.10;;;0.30;;
49824;SDS011;35714;55.708;37.478;2022-10-31T08:36:23;1.38;;;0.30;;
49824;SDS011;35714;55.708;37.478;2022-10-31T08:38:58;0.90;;;0.50;;
49824;SDS011;35714;55.708;37.478;2022-10-31T08:41:24;1.20;;;0.50;;
49824;SDS011;35714;55.708;37.478;2022-10-31T08:43:49;1.83;;;0.50;;
49824;SDS011;35714;55.708;37.478;2022-10-31T08:46:15;6.40;;;0.63;;
49824;SDS011;35714;55.708;37.478;2022-10-31T08:48:43;2.38;;;0.60;;
49824;SDS011;35714;55.708;37.478;2022-10-31T08:51:09;2.17;;;0.73;;
49824;SDS011;35714;55.708;37.478;2022-10-31T08:53:35;1.23;;;0.50;;
49824;SDS011;35714;55.708;37.478;2022-10-31T08:56:21;2.58;;;0.85;;
49824;SDS011;35714;55.708;37.478;2022-10-31T08:58:48;3.05;;;0.85;;
49824;SDS011;35714;55.708;37.478;2022-10-31T09:01:14;2.63;;;0.80;;
49824;SDS011;35714;55.708;37.478;2022-10-31T09:03:41;2.63;;;0.50;;
49824;SDS011;35714;55.708;37.478;2022-10-31T09:06:09;2.53;;;0.55;;
49824;SDS011;35714;55.708;37.478;2022-10-31T09:08:35;1.95;;;0.60;;
49824;SDS011;35714;55.708;37.478;2022-10-31T09:11:02;1.83;;;0.57;;
49824;SDS011;35714;55.708;37.478;2022-10-31T09:13:47;2.00;;;0.73;;
49824;SDS011;35714;55.708;37.478;2022-10-31T09:16:31;3.03;;;0.85;;
49824;SDS011;35714;55.708;37.478;2022-10-31T09:18:57;3.63;;;1.05;;
49824;SDS011;35714;55.708;37.478;2022-10-31T09:21:23;2.47;;;0.80;;
49824;SDS011;35714;55.708;37.478;2022-10-31T09:23:49;2.72;;;0.93;;
49824;SDS011;35714;55.708;37.478;2022-10-31T09:26:14;5.53;;;0.82;;
49824;SDS011;35714;55.708;37.478;2022-10-31T09:28:45;2.40;;;0.85;;
49824;SDS011;35714;55.708;37.478;2022-10-31T09:31:13;2.03;;;0.65;;
49824;SDS011;35714;55.708;37.478;2022-10-31T09:33:58;2.60;;;0.73;;
49824;SDS011;35714;55.708;37.478;2022-10-31T09:36:29;2.28;;;0.70;;
49824;SDS011;35714;55.708;37.478;2022-10-31T09:38:56;3.28;;;0.73;;
49824;SDS011;35714;55.708;37.478;2022-10-31T09:41:27;1.52;;;0.52;;
49824;SDS011;35714;55.708;37.478;2022-10-31T09:47:16;2.97;;;0.80;;
49824;SDS011;35714;55.708;37.478;2022-10-31T09:52:54;1.42;;;0.40;;
49824;SDS011;35714;55.708;37.478;2022-10-31T09:55:35;2.97;;;0.40;;
49824;SDS011;35714;55.708;37.478;2022-10-31T09:58:04;1.13;;;0.40;;
49824;SDS011;35714;55.708;37.478;2022-10-31T10:00:30;1.58;;;0.32;;
49824;SDS011;35714;55.708;37.478;2022-10-31T10:08:51;0.73;;;0.17;;
49824;SDS011;35714;55.708;37.478;2022-10-31T10:12:22;0.55;;;0.28;;
49824;SDS011;35714;55.708;37.478;2022-10-31T10:22:27;0.85;;;0.32;;
49824;SDS011;35714;55.708;37.478;2022-10-31T10:30:19;1.08;;;0.35;;
49824;SDS011;35714;55.708;37.478;2022-10-31T10:32:48;1.77;;;0.50;;
49824;SDS011;35714;55.708;37.478;2022-10-31T10:37:50;1.80;;;0.43;;
49824;SDS011;35714;55.708;37.478;2022-10-31T10:40:21;1.85;;;0.40;;
49824;SDS011;35714;55.708;37.478;2022-10-31T10:42:59;0.90;;;0.30;;
49824;SDS011;35714;55.708;37.478;2022-10-31T10:45:45;1.25;;;0.30;;
49824;SDS011;35714;55.708;37.478;2022-10-31T10:49:09;1.15;;;0.32;;
49824;SDS011;35714;55.708;37.478;2022-10-31T10:56:59;1.63;;;0.47;;
49824;SDS011;35714;55.708;37.478;2022-10-31T10:59:43;1.25;;;0.43;;
49824;SDS011;35714;55.708;37.478;2022-10-31T11:02:20;1.27;;;0.30;;
49824;SDS011;35714;55.708;37.478;2022-10-31T11:04:52;1.50;;;0.43;;
49824;SDS011;35714;55.708;37.478;2022-10-31T11:07:20;1.25;;;0.45;;
49824;SDS011;35714;55.708;37.478;2022-10-31T11:09:46;1.80;;;0.45;;
49824;SDS011;35714;55.708;37.478;2022-10-31T11:12:22;1.67;;;0.50;;
49824;SDS011;35714;55.708;37.478;2022-10-31T11:14:55;1.27;;;0.30;;
49824;SDS011;35714;55.708;37.478;2022-10-31T11:22:42;1.05;;;0.30;;
49824;SDS011;35714;55.708;37.478;2022-10-31T11:27:45;1.25;;;0.40;;
49824;SDS011;35714;55.708;37.478;2022-10-31T11:30:12;0.50;;;0.30;;
49824;SDS011;35714;55.708;37.478;2022-10-31T11:32:49;0.75;;;0.25;;
49824;SDS011;35714;55.708;37.478;2022-10-31T11:35:18;1.58;;;0.30;;
49824;SDS011;35714;55.708;37.478;2022-10-31T11:37:48;2.20;;;0.65;;
49824;SDS011;35714;55.708;37.478;2022-10-31T11:40:18;2.72;;;0.63;;
49824;SDS011;35714;55.708;37.478;2022-10-31T11:42:46;1.40;;;0.40;;
49824;SDS011;35714;55.708;37.478;2022-10-31T11:45:17;1.05;;;0.28;;
49824;SDS011;35714;55.708;37.478;2022-10-31T11:47:54;1.88;;;0.65;;
49824;SDS011;35714;55.708;37.478;2022-10-31T11:50:23;1.15;;;0.40;;
49824;SDS011;35714;55.708;37.478;2022-10-31T11:52:55;2.75;;;0.40;;
49824;SDS011;35714;55.708;37.478;2022-10-31T11:57:56;1.10;;;0.32;;
49824;SDS011;35714;55.708;37.478;2022-10-31T12:06:07;1.05;;;0.30;;
49824;SDS011;35714;55.708;37.478;2022-10-31T12:08:48;0.90;;;0.45;;
49824;SDS011;35714;55.708;37.478;2022-10-31T12:14:08;2.10;;;0.55;;
49824;SDS011;35714;55.708;37.478;2022-10-31T12:16:42;2.25;;;0.40;;
49824;SDS011;35714;55.708;37.478;2022-10-31T12:36:00;1.95;;;0.30;;
49824;SDS011;35714;55.708;37.478;2022-10-31T12:41:27;1.73;;;0.50;;
49824;SDS011;35714;55.708;37.478;2022-10-31T12:55:35;1.20;;;0.30;;
49824;SDS011;35714;55.708;37.478;2022-10-31T13:00:44;1.80;;;0.50;;
49824;SDS011;35714;55.708;37.478;2022-10-31T13:05:51;3.03;;;0.68;;
49824;SDS011;35714;55.708;37.478;2022-10-31T13:08:22;1.52;;;0.50;;
49824;SDS011;35714;55.708;37.478;2022-10-31T13:13:32;4.50;;;1.45;;
49824;SDS011;35714;55.708;37.478;2022-10-31T13:16:04;3.45;;;1.20;;
49824;SDS011;35714;55.708;37.478;2022-10-31T13:18:42;4.43;;;1.10;;
49824;SDS011;35714;55.708;37.478;2022-10-31T13:21:23;3.30;;;1.00;;
49824;SDS011;35714;55.708;37.478;2022-10-31T13:23:52;3.55;;;0.80;;
49824;SDS011;35714;55.708;37.478;2022-10-31T13:26:35;3.83;;;0.77;;
49824;SDS011;35714;55.708;37.478;2022-10-31T13:31:51;2.83;;;1.08;;
49824;SDS011;35714;55.708;37.478;2022-10-31T13:34:27;3.00;;;1.10;;
49824;SDS011;35714;55.708;37.478;2022-10-31T13:37:00;2.30;;;0.73;;
49824;SDS011;35714;55.708;37.478;2022-10-31T13:42:54;4.15;;;0.90;;
49824;SDS011;35714;55.708;37.478;2022-10-31T13:47:40;3.08;;;0.77;;
49824;SDS011;35714;55.708;37.478;2022-10-31T13:50:24;1.55;;;0.65;;
49824;SDS011;35714;55.708;37.478;2022-10-31T13:55:45;1.73;;;0.52;;
49824;SDS011;35714;55.708;37.478;2022-10-31T14:04:51;4.97;;;0.60;;
49824;SDS011;35714;55.708;37.478;2022-10-31T14:09:35;4.22;;;1.25;;
49824;SDS011;35714;55.708;37.478;2022-10-31T14:12:04;2.05;;;0.63;;
49824;SDS011;35714;55.708;37.478;2022-10-31T14:14:48;5.75;;;1.02;;
49824;SDS011;35714;55.708;37.478;2022-10-31T14:17:23;1.83;;;0.60;;
49824;SDS011;35714;55.708;37.478;2022-10-31T14:22:46;2.70;;;0.68;;
49824;SDS011;35714;55.708;37.478;2022-10-31T14:27:50;1.65;;;0.55;;
49824;SDS011;35714;55.708;37.478;2022-10-31T14:30:21;3.08;;;0.70;;
49824;SDS011;35714;55.708;37.478;2022-10-31T14:32:50;1.67;;;0.55;;
49824;SDS011;35714;55.708;37.478;2022-10-31T14:35:23;2.25;;;0.75;;
49824;SDS011;35714;55.708;37.478;2022-10-31T14:37:59;1.38;;;0.80;;
49824;SDS011;35714;55.708;37.478;2022-10-31T14:43:44;1.25;;;0.40;;
49824;SDS011;35714;55.708;37.478;2022-10-31T14:46:50;1.13;;;0.43;;
49824;SDS011;35714;55.708;37.478;2022-10-31T14:49:50;2.13;;;0.70;;
49824;SDS011;35714;55.708;37.478;2022-10-31T14:55:02;2.53;;;0.60;;
49824;SDS011;35714;55.708;37.478;2022-10-31T14:57:34;2.22;;;0.40;;
49824;SDS011;35714;55.708;37.478;2022-10-31T15:00:06;1.35;;;0.45;;
49824;SDS011;35714;55.708;37.478;2022-10-31T15:02:35;2.05;;;0.50;;
49824;SDS011;35714;55.708;37.478;2022-10-31T15:05:09;1.95;;;0.65;;
49824;SDS011;35714;55.708;37.478;2022-10-31T15:07:36;1.42;;;0.50;;
49824;SDS011;35714;55.708;37.478;2022-10-31T15:10:06;2.55;;;0.80;;
49824;SDS011;35714;55.708;37.478;2022-10-31T15:12:45;2.15;;;0.70;;
49824;SDS011;35714;55.708;37.478;2022-10-31T15:15:12;2.22;;;0.70;;
49824;SDS011;35714;55.708;37.478;2022-10-31T15:17:46;1.58;;;0.60;;
49824;SDS011;35714;55.708;37.478;2022-10-31T15:20:22;1.50;;;0.70;;
49824;SDS011;35714;55.708;37.478;2022-10-31T15:22:51;3.22;;;0.82;;
49824;SDS011;35714;55.708;37.478;2022-10-31T15:25:19;1.98;;;0.65;;
49824;SDS011;35714;55.708;37.478;2022-10-31T15:27:48;1.88;;;0.63;;
49824;SDS011;35714;55.708;37.478;2022-10-31T15:30:19;2.67;;;1.08;;
49824;SDS011;35714;55.708;37.478;2022-10-31T15:32:50;1.70;;;0.55;;
49824;SDS011;35714;55.708;37.478;2022-10-31T15:35:23;1.98;;;0.90;;
49824;SDS011;35714;55.708;37.478;2022-10-31T15:37:51;1.40;;;0.60;;
49824;SDS011;35714;55.708;37.478;2022-10-31T15:40:19;3.05;;;0.85;;
49824;SDS011;35714;55.708;37.478;2022-10-31T15:42:50;1.40;;;0.55;;
49824;SDS011;35714;55.708;37.478;2022-10-31T15:45:22;1.27;;;0.47;;
49824;SDS011;35714;55.708;37.478;2022-10-31T15:47:54;5.05;;;0.80;;
49824;SDS011;35714;55.708;37.478;2022-10-31T15:52:56;3.33;;;0.85;;
49824;SDS011;35714;55.708;37.478;2022-10-31T15:55:26;2.63;;;0.70;;
49824;SDS011;35714;55.708;37.478;2022-10-31T16:00:59;3.17;;;0.93;;
49824;SDS011;35714;55.708;37.478;2022-10-31T16:03:31;3.53;;;1.15;;
49824;SDS011;35714;55.708;37.478;2022-10-31T16:05:59;2.08;;;0.70;;
49824;SDS011;35714;55.708;37.478;2022-10-31T16:10:59;1.60;;;0.57;;
49824;SDS011;35714;55.708;37.478;2022-10-31T16:13:40;1.73;;;0.65;;
49824;SDS011;35714;55.708;37.478;2022-10-31T16:16:28;1.55;;;0.50;;
49824;SDS011;35714;55.708;37.478;2022-10-31T16:18:54;1.73;;;0.65;;
49824;SDS011;35714;55.708;37.478;2022-10-31T16:21:35;1.98;;;0.57;;
49824;SDS011;35714;55.708;37.478;2022-10-31T16:24:04;4.28;;;0.85;;
49824;SDS011;35714;55.708;37.478;2022-10-31T16:26:39;2.22;;;0.70;;
49824;SDS011;35714;55.708;37.478;2022-10-31T16:29:22;3.53;;;0.75;;
49824;SDS011;35714;55.708;37.478;2022-10-31T16:31:51;2.58;;;0.60;;
49824;SDS011;35714;55.708;37.478;2022-10-31T16:34:19;1.88;;;0.40;;
49824;SDS011;35714;55.708;37.478;2022-10-31T16:36:46;4.30;;;0.93;;
49824;SDS011;35714;55.708;37.478;2022-10-31T16:39:13;2.28;;;0.65;;
49824;SDS011;35714;55.708;37.478;2022-10-31T16:41:40;1.38;;;0.32;;
49824;SDS011;35714;55.708;37.478;2022-10-31T16:44:23;3.95;;;0.50;;
49824;SDS011;35714;55.708;37.478;2022-10-31T16:47:07;3.70;;;0.70;;
49824;SDS011;35714;55.708;37.478;2022-10-31T16:49:40;1.92;;;0.50;;
49824;SDS011;35714;55.708;37.478;2022-10-31T16:52:07;2.42;;;0.60;;
49824;SDS011;35714;55.708;37.478;2022-10-31T16:54:32;2.42;;;0.45;;
49824;SDS011;35714;55.708;37.478;2022-10-31T16:56:58;1.48;;;0.60;;
49824;SDS011;35714;55.708;37.478;2022-10-31T16:59:26;1.20;;;0.40;;
49824;SDS011;35714;55.708;37.478;2022-10-31T17:01:52;1.15;;;0.40;;
49824;SDS011;35714;55.708;37.478;2022-10-31T17:04:19;2.45;;;0.95;;
49824;SDS011;35714;55.708;37.478;2022-10-31T17:06:45;2.97;;;0.80;;
49824;SDS011;35714;55.708;37.478;2022-10-31T17:09:11;2.72;;;0.85;;
49824;SDS011;35714;55.708;37.478;2022-10-31T17:11:36;1.63;;;0.60;;
49824;SDS011;35714;55.708;37.478;2022-10-31T17:14:08;2.30;;;0.50;;
49824;SDS011;35714;55.708;37.478;2022-10-31T17:16:34;1.05;;;0.40;;
49824;SDS011;35714;55.708;37.478;2022-10-31T17:19:01;2.20;;;0.60;;
49824;SDS011;35714;55.708;37.478;2022-10-31T17:21:27;1.92;;;0.50;;
49824;SDS011;35714;55.708;37.478;2022-10-31T17:23:53;1.33;;;0.60;;
49824;SDS011;35714;55.708;37.478;2022-10-31T17:26:19;2.08;;;0.50;;
49824;SDS011;35714;55.708;37.478;2022-10-31T17:28:45;2.25;;;0.65;;
49824;SDS011;35714;55.708;37.478;2022-10-31T17:31:24;3.65;;;1.30;;
49824;SDS011;35714;55.708;37.478;2022-10-31T17:33:56;3.10;;;1.00;;
49824;SDS011;35714;55.708;37.478;2022-10-31T17:36:23;2.00;;;0.60;;
49824;SDS011;35714;55.708;37.478;2022-10-31T17:38:48;2.72;;;0.95;;